Milan, IN

1:20 PM EDT on May 06, 2015 (GMT -0400)
Perfect North Slopes Top of Hill | | Change Station
CLOSE
Current Station
Personal Weather Station
Location: Lawrenceburg, IN
Elevation: 837 ft
Nearby Weather Stations

Elev 837 ft 39.14 °N, 84.89 °W | Updated 13 seconds ago

Partly Cloudy
Partly Cloudy
80.4 °F
Feels Like 81 °F
N
0.0
Wind Variable Wind from SSW
Gusts 4.0 mph

Today
High -- | Low -- °F
--% Chance of Precip.
Yesterday
High -- | Low -- °F
Precip. -- in
6:36 AM 8:38 PM
Waning Gibbous, 93% visible
Pressure 30.18 in
Visibility 10.0 miles
Clouds Few 6500 ft
Scattered Clouds 25000 ft
Heat Index 81 °F
Dew Point 58 °F
Humidity 46%
Rainfall 0.00 in
Snow Depth Not available.
UV 9 out of 12
Pollen 10.30 out of 12
Air Quality Not available.
Flu Activity Local Activity
METAR KCVG 061652Z 32003KT 10SM FEW065 SCT250 28/11 A3021 RMK AO2 SLP220 MDT CU NW T02780111

More Conditions Fewer Conditions

Pressure 30.18 in
Visibility 10.0 miles
Clouds Few 6500 ft
Scattered Clouds 25000 ft
Heat Index 81 °F
Dew Point 58 °F
Humidity 46%
Rainfall 0.00 in
Snow Depth Not available.
UV 9 out of 12
Pollen 10.30 out of 12
Air Quality Not available.
Flu Activity Local Activity
METAR KCVG 061652Z 32003KT 10SM FEW065 SCT250 28/11 A3021 RMK AO2 SLP220 MDT CU NW T02780111

More Conditions Fewer Conditions

10-Day Weather Forecast

Almanac

Astronomy

May. 06, 2015 Rise Set
Actual Time
Civil Twilight
Nautical Twilight
Astronomical Twilight
Moon
Length of Visible Light
Length of Day
Tomorrow will be .
, % of the Moon is Illuminated

Today's Extremes

State Highs State Lows

Community

WunderPhotos

Upload Photos

1,818,956 photos uploaded!

WunderBlogs® & News

Nearby

Air Quality

  Air Quality AQ Index Pollutant
Not available.

Snow Depth

Station Depth Elevation

Earthquake Activity

City Distance Mag. Time & Date
Minimum magnitude displayed is 2.5.

Coastal Water Temperatures

Place Temperature

Stations

Nearby Weather Stations

Station Location Temp. Windchill Dew Point Humidity Wind Precip. Elev Updated Type